Time;durP1;ratioP1;P1;durP2;ratioP2;P2;SDS_P1;SDS_P2;PMS_P1;PMS_P2;Temp;Humidity;BMP_temperature;BMP_pressure;BME280_temperature;BME280_humidity;BME280_pressure;Samples;Min_cycle;Max_cycle;Signal;HPM_P1;HPM_P2
2022/07/21 00:00:18;;;;;;;4.92;2.30;;;;;;;15.81;69.58;100046.85;1821240;77;20938;-74
2022/07/21 00:02:45;;;;;;;5.65;2.17;;;;;;;15.80;69.56;100049.18;1849771;77;20982;-73
2022/07/21 00:05:13;;;;;;;5.35;2.22;;;;;;;15.78;69.51;100053.02;1830574;77;22204;-73
2022/07/21 00:07:40;;;;;;;7.37;2.45;;;;;;;15.72;69.67;100054.48;1796083;78;20936;-73
2022/07/21 00:10:07;;;;;;;5.35;2.47;;;;;;;15.66;69.81;100052.48;1796898;78;21416;-73
2022/07/21 00:12:34;;;;;;;6.37;2.05;;;;;;;15.65;69.88;100054.82;1820837;78;21468;-73
2022/07/21 00:15:01;;;;;;;4.25;2.20;;;;;;;15.64;69.81;100047.83;1801697;78;21015;-74
2022/07/21 00:17:28;;;;;;;4.50;1.95;;;;;;;15.64;69.74;100052.66;1802208;78;21874;-74
2022/07/21 00:19:55;;;;;;;5.67;2.47;;;;;;;15.65;69.68;100050.83;1769567;79;21118;-74
2022/07/21 00:22:22;;;;;;;6.12;2.67;;;;;;;15.64;69.66;100052.66;1811799;78;21453;-73
2022/07/21 00:24:49;;;;;;;5.60;2.15;;;;;;;15.64;69.67;100053.16;1768292;79;20961;-76
2022/07/21 00:27:15;;;;;;;5.58;1.87;;;;;;;15.63;69.74;100049.66;1808527;78;21063;-74
2022/07/21 00:29:42;;;;;;;4.03;2.20;;;;;;;15.61;69.84;100051.63;1786459;78;21888;-75
2022/07/21 00:32:11;;;;;;;5.15;1.92;;;;;;;15.55;69.87;100047.44;1791402;79;20985;-74
2022/07/21 00:34:38;;;;;;;9.05;2.20;;;;;;;15.53;69.89;100048.91;1806575;77;20987;-74
2022/07/21 00:37:04;;;;;;;4.60;2.27;;;;;;;15.51;69.92;100046.08;1799203;78;21079;-74
2022/07/21 00:39:31;;;;;;;4.80;2.02;;;;;;;15.46;69.97;100051.40;1790042;78;21038;-75
2022/07/21 00:41:58;;;;;;;6.33;2.20;;;;;;;15.45;70.00;100043.58;1799792;77;21815;-74
2022/07/21 00:44:26;;;;;;;4.22;2.17;;;;;;;15.42;69.94;100050.03;1797799;77;21006;-74
2022/07/21 00:46:53;;;;;;;5.20;2.08;;;;;;;15.42;69.84;100049.20;1783856;78;20969;-75
2022/07/21 00:49:20;;;;;;;5.33;2.33;;;;;;;15.42;69.83;100045.21;1796631;78;20955;-74
2022/07/21 00:51:47;;;;;;;3.15;2.10;;;;;;;15.42;69.78;100050.03;1765606;79;21005;-75
2022/07/21 00:54:16;;;;;;;7.37;2.37;;;;;;;15.40;69.74;100046.70;1820938;77;22305;-75
2022/07/21 00:56:43;;;;;;;5.12;2.00;;;;;;;15.38;69.72;100043.87;1794946;79;20950;-75
2022/07/21 00:59:11;;;;;;;5.90;2.20;;;;;;;15.37;69.71;100049.70;1791158;79;21068;-75
2022/07/21 01:01:38;;;;;;;4.05;2.08;;;;;;;15.35;69.77;100050.86;1808740;78;21104;-74
2022/07/21 01:04:04;;;;;;;4.85;1.92;;;;;;;15.32;69.83;100051.99;1800458;78;21092;-74
2022/07/21 01:06:31;;;;;;;4.05;2.00;;;;;;;15.29;69.88;100052.32;1798921;78;21935;-75
2022/07/21 01:08:59;;;;;;;3.27;1.95;;;;;;;15.26;69.92;100045.17;1791824;79;20976;-74
2022/07/21 01:11:25;;;;;;;9.63;2.12;;;;;;;15.27;69.95;100046.33;1787507;79;21012;-74
2022/07/21 01:13:53;;;;;;;6.53;2.30;;;;;;;15.27;69.94;100044.17;1784168;79;21032;-74
2022/07/21 01:16:21;;;;;;;6.15;2.17;;;;;;;15.29;69.88;100044.84;1792062;79;20967;-75
2022/07/21 01:18:47;;;;;;;3.60;2.00;;;;;;;15.28;69.88;100050.66;1786587;79;21892;-74
2022/07/21 01:21:37;;;;;;;5.40;2.00;;;;;;;15.27;69.85;100052.98;1792282;79;20976;-75
2022/07/21 01:24:05;;;;;;;5.97;2.12;;;;;;;15.21;69.93;100046.96;1772686;79;21559;-73
2022/07/21 01:26:40;;;;;;;3.60;1.92;;;;;;;15.19;70.00;100050.28;1752327;81;21047;-76
2022/07/21 01:29:08;;;;;;;4.40;1.90;;;;;;;15.18;70.02;100043.30;1754950;79;21437;-74
2022/07/21 01:31:35;;;;;;;5.92;2.10;;;;;;;15.17;70.01;100038.98;1789128;79;22760;-73
2022/07/21 01:34:02;;;;;;;5.55;1.95;;;;;;;15.17;70.03;100042.97;1789001;79;20984;-74
2022/07/21 01:36:30;;;;;;;5.33;2.17;;;;;;;15.16;70.01;100040.80;1791460;79;20959;-73
2022/07/21 01:41:43;;;;;;;5.50;2.00;;;;;;;15.16;70.04;100030.66;1777858;79;21653;-73
2022/07/21 01:44:12;;;;;;;5.85;1.92;;;;;;;15.15;70.01;100031.16;1759904;80;21866;-74
2022/07/21 01:46:45;;;;;;;3.90;1.98;;;;;;;15.15;69.98;100031.62;1792132;77;20924;-74
2022/07/21 01:49:15;;;;;;;8.13;1.90;;;;;;;15.13;69.94;100030.45;1780262;80;21020;-73
2022/07/21 01:51:41;;;;;;;5.10;1.80;;;;;;;15.12;69.89;100033.28;1791793;77;20959;-75
2022/07/21 01:54:08;;;;;;;6.10;1.98;;;;;;;15.15;69.71;100035.61;1784547;79;21641;-73
2022/07/21 01:56:36;;;;;;;5.42;2.17;;;;;;;15.16;69.57;100037.31;1776362;80;21893;-74
2022/07/21 01:59:02;;;;;;;6.00;2.30;;;;;;;15.14;69.50;100041.93;1790860;78;21454;-73
2022/07/21 02:01:30;;;;;;;5.95;2.00;;;;;;;15.13;69.53;100038.94;1793721;79;21445;-73
2022/07/21 02:03:58;;;;;;;4.40;1.95;;;;;;;15.12;69.48;100037.27;1805261;77;21002;-73
2022/07/21 02:06:25;;;;;;;5.62;2.10;;;;;;;15.10;69.41;100041.42;1771366;79;21106;-73
2022/07/21 02:08:52;;;;;;;7.22;1.82;;;;;;;15.08;69.45;100042.09;1774153;79;21978;-74
2022/07/21 02:11:19;;;;;;;8.28;1.80;;;;;;;15.06;69.37;100039.26;1819627;77;20936;-73
2022/07/21 02:13:46;;;;;;;4.92;1.98;;;;;;;15.03;69.34;100032.91;1809245;78;21346;-73
2022/07/21 02:16:13;;;;;;;6.42;2.08;;;;;;;14.99;69.26;100040.87;1804950;78;21069;-74
2022/07/21 02:18:40;;;;;;;4.40;1.70;;;;;;;14.95;69.24;100036.84;1827045;78;20941;-74
2022/07/21 02:21:07;;;;;;;5.83;2.00;;;;;;;14.94;69.23;100037.84;1810295;78;21819;-74
2022/07/21 02:23:34;;;;;;;6.60;2.15;;;;;;;14.91;69.32;100035.51;1801287;78;21019;-75
2022/07/21 02:26:01;;;;;;;6.55;1.75;;;;;;;14.87;69.34;100037.16;1780763;79;20945;-73
2022/07/21 02:28:27;;;;;;;5.40;1.80;;;;;;;14.86;69.44;100032.84;1813501;78;21389;-75
2022/07/21 02:30:54;;;;;;;11.30;2.15;;;;;;;14.86;69.39;100034.17;1803942;78;21529;-75
2022/07/21 02:33:21;;;;;;;6.83;2.00;;;;;;;14.84;69.36;100033.47;1830248;77;21582;-75
2022/07/21 02:35:48;;;;;;;5.40;1.85;;;;;;;14.83;69.32;100035.80;1810790;78;21469;-75
2022/07/21 02:38:15;;;;;;;4.90;1.95;;;;;;;14.83;69.33;100041.61;1815797;78;21450;-75
2022/07/21 02:40:42;;;;;;;3.83;1.90;;;;;;;14.81;69.37;100039.11;1810735;78;20994;-75
2022/07/21 02:43:10;;;;;;;3.77;1.90;;;;;;;14.80;69.48;100041.93;1805224;78;21100;-74
2022/07/21 02:45:37;;;;;;;3.00;1.90;;;;;;;14.80;69.49;100045.42;1773787;79;22465;-75
2022/07/21 02:48:07;;;;;;;4.90;1.92;;;;;;;14.80;69.47;100046.75;1797958;78;21555;-74
2022/07/21 02:50:35;;;;;;;2.92;1.82;;;;;;;14.80;69.47;100047.25;1816602;78;21013;-76
2022/07/21 02:53:08;;;;;;;3.80;1.82;;;;;;;14.82;69.41;100042.60;1801943;78;21072;-75
2022/07/21 02:55:36;;;;;;;6.55;2.15;;;;;;;14.80;69.39;100045.42;1792946;78;21033;-76
2022/07/21 02:58:11;;;;;;;5.80;2.00;;;;;;;14.83;69.42;100042.94;1775554;79;22278;-74
2022/07/21 03:00:40;;;;;;;5.33;2.15;;;;;;;14.85;69.41;100039.12;1808659;78;20986;-74
2022/07/21 03:03:07;;;;;;;4.90;2.00;;;;;;;14.85;69.43;100039.62;1829235;77;20967;-74
2022/07/21 03:05:35;;;;;;;5.60;2.02;;;;;;;14.84;69.45;100037.95;1835348;77;21065;-75
2022/07/21 03:08:01;;;;;;;7.75;1.98;;;;;;;14.85;69.50;100035.13;1816337;78;20938;-74
2022/07/21 03:10:28;;;;;;;4.45;2.33;;;;;;;14.86;69.54;100032.84;1827606;77;21825;-73
2022/07/21 03:12:54;;;;;;;4.45;1.80;;;;;;;14.88;69.59;100042.81;1823773;77;21563;-74
2022/07/21 03:15:21;;;;;;;7.25;1.85;;;;;;;14.87;69.63;100031.84;1827846;77;21183;-75
2022/07/21 03:17:47;;;;;;;4.28;2.00;;;;;;;14.88;69.67;100042.81;1848689;77;20985;-75
2022/07/21 03:20:14;;;;;;;3.83;1.70;;;;;;;14.93;69.61;100034.84;1828095;77;21033;-75
2022/07/21 03:22:41;;;;;;;9.50;2.00;;;;;;;14.95;69.46;100028.38;1790820;79;23598;-75
2022/07/21 03:25:08;;;;;;;5.80;1.80;;;;;;;14.97;69.34;100030.41;1821779;77;21087;-74
2022/07/21 03:27:36;;;;;;;4.80;1.50;;;;;;;15.01;69.30;100026.42;1840141;77;21061;-77
2022/07/21 03:30:05;;;;;;;3.95;1.70;;;;;;;15.05;69.05;100033.58;1835226;77;21045;-76
2022/07/21 03:32:32;;;;;;;9.15;1.77;;;;;;;15.07;69.01;100038.27;1844654;77;20934;-76
2022/07/21 03:34:59;;;;;;;7.10;2.10;;;;;;;15.10;68.78;100033.95;1835304;77;22475;-75
2022/07/21 03:37:26;;;;;;;10.10;1.72;;;;;;;15.11;68.74;100032.95;1824311;77;20982;-76
2022/07/21 03:39:53;;;;;;;2.65;1.70;;;;;;;15.15;68.64;100035.61;1823839;77;20941;-77
2022/07/21 03:42:19;;;;;;;5.37;1.90;;;;;;;15.19;68.67;100031.66;1818999;77;21089;-76
2022/07/21 03:44:46;;;;;;;6.25;1.70;;;;;;;15.17;68.49;100034.48;1819605;77;20990;-76
2022/07/21 03:47:13;;;;;;;6.05;1.62;;;;;;;15.21;68.41;100039.48;1848534;77;22162;-74
2022/07/21 03:49:40;;;;;;;3.83;1.50;;;;;;;15.25;68.26;100036.82;1832514;77;21232;-74
2022/07/21 03:52:06;;;;;;;3.80;1.62;;;;;;;15.30;68.10;100039.35;1816982;77;20954;-76
2022/07/21 03:54:33;;;;;;;5.53;1.60;;;;;;;15.35;68.20;100028.24;1829015;77;20990;-77
2022/07/21 03:56:59;;;;;;;5.78;1.67;;;;;;;15.39;68.00;100029.58;1825078;77;21073;-76
2022/07/21 03:59:26;;;;;;;5.95;1.75;;;;;;;15.44;67.84;100027.25;1818194;77;22438;-75
2022/07/21 04:01:52;;;;;;;4.70;1.67;;;;;;;15.49;67.93;100020.95;1841788;77;21465;-75
2022/07/21 04:04:20;;;;;;;6.47;1.85;;;;;;;15.53;67.75;100024.12;1847623;76;20955;-75
2022/07/21 04:06:48;;;;;;;2.92;1.40;;;;;;;15.55;67.57;100021.65;1816754;77;20955;-75
2022/07/21 04:09:17;;;;;;;5.62;1.80;;;;;;;15.60;67.49;100016.69;1826893;77;21061;-75
2022/07/21 04:11:45;;;;;;;3.95;1.70;;;;;;;15.62;67.52;100012.02;1827712;77;21006;-75
2022/07/21 04:14:11;;;;;;;5.17;1.57;;;;;;;15.67;67.40;100012.38;1814967;77;20998;-74
2022/07/21 04:16:38;;;;;;;2.87;1.50;;;;;;;15.70;67.11;100004.56;1815924;77;20953;-75
2022/07/21 04:19:04;;;;;;;4.42;1.40;;;;;;;15.76;66.95;100003.09;1842347;77;21002;-76
2022/07/21 04:21:32;;;;;;;3.20;1.55;;;;;;;15.82;67.08;100005.91;1826578;77;20951;-77
2022/07/21 04:23:59;;;;;;;2.30;1.50;;;;;;;15.90;66.84;100005.09;1825079;77;21805;-76
2022/07/21 04:26:27;;;;;;;4.45;1.62;;;;;;;15.96;66.56;99995.95;1826984;77;21472;-76
2022/07/21 04:28:55;;;;;;;5.65;1.50;;;;;;;16.02;66.27;100001.95;1828239;77;21056;-76
2022/07/21 04:31:22;;;;;;;6.55;1.60;;;;;;;16.10;66.00;100001.60;1837875;77;20938;-77
2022/07/21 04:33:48;;;;;;;2.40;1.20;;;;;;;16.17;65.87;99995.95;1821609;77;20998;-76
2022/07/21 04:36:14;;;;;;;2.40;1.30;;;;;;;16.24;65.90;100001.78;1836656;77;21849;-75
2022/07/21 04:38:41;;;;;;;5.42;1.70;;;;;;;16.29;65.69;100002.09;1806451;78;20943;-75
2022/07/21 04:41:07;;;;;;;2.27;1.25;;;;;;;16.37;65.42;99999.92;1836750;77;20973;-75
2022/07/21 04:43:34;;;;;;;3.40;1.45;;;;;;;16.42;65.16;100006.94;1832189;77;21069;-75
2022/07/21 04:46:01;;;;;;;7.05;1.37;;;;;;;16.48;65.16;100009.41;1830818;77;21056;-75
2022/07/21 04:48:29;;;;;;;6.33;1.75;;;;;;;16.54;65.35;100004.75;1813111;77;21580;-75
2022/07/21 04:50:56;;;;;;;3.80;1.50;;;;;;;16.60;65.17;100007.58;1833722;77;20946;-74
2022/07/21 04:53:22;;;;;;;5.00;1.60;;;;;;;16.66;65.22;100007.88;1843880;77;21044;-76
2022/07/21 04:55:49;;;;;;;6.60;1.70;;;;;;;16.74;65.03;100006.57;1836075;77;20942;-76
2022/07/21 04:58:16;;;;;;;4.05;1.60;;;;;;;16.79;65.12;100001.06;1822832;77;20984;-74
2022/07/21 05:00:43;;;;;;;6.62;1.67;;;;;;;16.85;64.78;100008.36;1834309;77;22355;-74
2022/07/21 05:03:10;;;;;;;5.00;1.62;;;;;;;16.91;64.85;100001.53;1838196;77;20942;-75
2022/07/21 05:05:38;;;;;;;2.50;1.27;;;;;;;16.96;64.51;100000.49;1821493;77;21112;-76
2022/07/21 05:08:05;;;;;;;6.83;1.35;;;;;;;17.03;64.82;100003.31;1805952;78;21066;-76
2022/07/21 05:10:33;;;;;;;2.40;1.45;;;;;;;17.07;64.57;100001.45;1807193;78;20943;-76
2022/07/21 05:12:59;;;;;;;5.97;2.10;;;;;;;17.12;64.66;100000.95;1816568;78;22395;-76
2022/07/21 05:15:28;;;;;;;3.55;1.55;;;;;;;17.19;64.56;100004.59;1824691;78;20997;-76
2022/07/21 05:17:54;;;;;;;4.80;1.60;;;;;;;17.27;64.35;100001.86;1827331;78;21025;-76
2022/07/21 05:20:20;;;;;;;5.35;1.67;;;;;;;17.35;64.47;100005.00;1818900;78;20953;-76
2022/07/21 05:22:48;;;;;;;5.37;1.50;;;;;;;17.43;64.49;99996.45;1782079;78;20998;-77
2022/07/21 05:25:14;;;;;;;4.05;1.42;;;;;;;17.51;64.49;99998.25;1791010;78;21797;-76
2022/07/21 05:27:41;;;;;;;7.33;1.40;;;;;;;17.59;64.13;99995.53;1770089;80;20940;-76
2022/07/21 05:30:10;;;;;;;9.03;1.77;;;;;;;17.64;63.82;99994.48;1810357;78;21016;-76
2022/07/21 05:32:37;;;;;;;5.20;1.75;;;;;;;17.70;63.65;99993.83;1759785;80;21012;-76
2022/07/21 05:35:10;;;;;;;3.17;1.40;;;;;;;17.76;63.13;99992.30;1790419;78;21386;-76
2022/07/21 05:37:35;;;;;;;8.90;1.60;;;;;;;17.79;63.28;99985.25;1790096;78;21801;-77
2022/07/21 05:40:02;;;;;;;3.77;1.40;;;;;;;17.86;63.05;99982.20;1815643;78;20956;-77
2022/07/21 05:42:28;;;;;;;2.30;1.30;;;;;;;17.94;63.31;99982.11;1789673;80;20968;-77
2022/07/21 05:44:56;;;;;;;3.62;1.60;;;;;;;17.99;62.50;99985.61;1787063;78;20998;-78
2022/07/21 05:47:23;;;;;;;2.12;1.30;;;;;;;18.04;62.09;99981.88;1784006;79;21024;-76
2022/07/21 05:49:49;;;;;;;3.90;1.30;;;;;;;18.12;62.31;99984.98;1807080;79;21892;-76
2022/07/21 05:52:16;;;;;;;3.80;1.30;;;;;;;18.23;62.11;99983.22;1818409;77;20979;-73
2022/07/21 05:54:43;;;;;;;3.15;1.27;;;;;;;18.31;61.65;99987.16;1809454;78;21441;-72
2022/07/21 05:57:09;;;;;;;4.92;1.42;;;;;;;18.38;61.35;99987.28;1816209;78;20986;-77
2022/07/21 05:59:36;;;;;;;2.80;1.15;;;;;;;18.43;61.24;99984.87;1808508;78;21046;-78
2022/07/21 06:02:03;;;;;;;4.50;1.47;;;;;;;18.50;61.08;99979.13;1809372;78;21760;-76
2022/07/21 06:04:29;;;;;;;3.25;1.20;;;;;;;18.55;60.94;99982.92;1799784;78;20939;-74
2022/07/21 06:06:56;;;;;;;5.92;1.30;;;;;;;18.61;60.70;99982.69;1781869;79;21065;-72
2022/07/21 06:09:22;;;;;;;5.20;1.27;;;;;;;18.69;60.72;99981.30;1814507;77;20948;-75
2022/07/21 06:11:49;;;;;;;4.33;1.20;;;;;;;18.78;60.81;99979.37;1802036;79;21458;-77
2022/07/21 06:14:17;;;;;;;3.10;1.15;;;;;;;18.86;60.92;99974.75;1794252;77;20956;-75
2022/07/21 06:16:43;;;;;;;5.72;1.20;;;;;;;18.99;61.07;99971.92;1786309;79;20972;-76
2022/07/21 06:19:11;;;;;;;3.37;1.00;;;;;;;19.08;60.75;99977.50;1796662;78;20952;-76
2022/07/21 06:21:37;;;;;;;4.25;1.20;;;;;;;19.20;60.40;99976.00;1795419;79;21481;-75
2022/07/21 06:24:05;;;;;;;2.17;1.02;;;;;;;19.29;58.88;99974.88;1774365;79;21215;-75
2022/07/21 06:26:32;;;;;;;4.40;1.00;;;;;;;19.36;58.03;99973.11;1803147;79;21935;-76
2022/07/21 06:28:59;;;;;;;2.87;0.82;;;;;;;19.43;57.63;99983.41;1798321;79;21459;-76
2022/07/21 06:31:26;;;;;;;3.35;0.80;;;;;;;19.49;57.14;99974.27;1794204;79;21008;-73
2022/07/21 06:33:54;;;;;;;4.83;1.00;;;;;;;19.58;57.04;99971.32;1783525;79;20933;-74
2022/07/21 06:36:22;;;;;;;3.60;1.00;;;;;;;19.64;56.18;99964.38;1802703;79;20947;-76
2022/07/21 06:38:49;;;;;;;6.12;1.00;;;;;;;19.70;55.74;99969.83;1801989;79;21846;-74
2022/07/21 06:41:17;;;;;;;2.75;0.90;;;;;;;19.76;54.96;99972.23;1791401;79;20997;-75
2022/07/21 06:43:44;;;;;;;1.65;0.80;;;;;;;19.83;54.75;99958.39;1789529;79;21404;-75
2022/07/21 06:46:12;;;;;;;4.08;1.10;;;;;;;19.86;54.13;99962.53;1798990;79;21043;-75
2022/07/21 06:48:40;;;;;;;6.65;0.85;;;;;;;19.90;54.91;99964.66;1801073;77;20944;-74
2022/07/21 06:51:06;;;;;;;4.40;0.90;;;;;;;20.00;55.37;99959.80;1811833;79;21809;-75
2022/07/21 06:53:33;;;;;;;3.47;0.70;;;;;;;20.15;55.61;99966.91;1804178;79;21047;-76
2022/07/21 06:56:00;;;;;;;6.20;0.85;;;;;;;20.28;54.97;99962.50;1772271;81;20999;-75
2022/07/21 06:58:27;;;;;;;1.87;0.80;;;;;;;20.37;53.04;99969.06;1787061;79;20995;-75
2022/07/21 07:00:55;;;;;;;4.05;1.20;;;;;;;20.36;53.62;99957.99;1803702;79;21023;-76
2022/07/21 07:03:22;;;;;;;3.87;1.00;;;;;;;20.37;53.96;99955.66;1782094;78;21838;-77
2022/07/21 07:05:49;;;;;;;4.33;1.07;;;;;;;20.40;53.04;99968.16;1780245;79;20873;-76
2022/07/21 07:08:16;;;;;;;1.95;0.88;;;;;;;20.37;52.84;99947.61;1774709;79;21059;-76
2022/07/21 07:10:43;;;;;;;5.75;1.10;;;;;;;20.34;53.53;99953.34;1779724;79;21047;-76
2022/07/21 07:13:10;;;;;;;8.25;0.93;;;;;;;20.39;53.66;99952.26;1781301;79;21476;-76
2022/07/21 07:15:39;;;;;;;5.65;0.93;;;;;;;20.45;53.21;99950.98;1788935;79;21569;-75
2022/07/21 07:18:06;;;;;;;8.85;1.00;;;;;;;20.50;52.74;99951.23;1763228;79;21015;-76
2022/07/21 07:20:40;;;;;;;2.70;0.82;;;;;;;20.51;53.28;99951.55;1783745;79;20960;-77
2022/07/21 07:23:15;;;;;;;3.12;0.72;;;;;;;20.56;52.96;99942.92;1806894;79;21114;-74
2022/07/21 07:25:42;;;;;;;3.55;0.78;;;;;;;20.63;52.11;99940.25;1777388;79;21106;-75
2022/07/21 07:28:23;;;;;;;2.70;0.75;;;;;;;20.68;51.50;99939.16;1780435;79;21954;-75
2022/07/21 07:30:49;;;;;;;3.35;0.88;;;;;;;20.70;50.48;99937.10;1772553;79;21051;-75
2022/07/21 07:33:15;;;;;;;4.35;0.72;;;;;;;20.72;49.93;99920.28;1782334;80;21132;-76
2022/07/21 07:35:44;;;;;;;3.67;0.60;;;;;;;20.81;50.28;99939.22;1783917;77;21077;-76
2022/07/21 07:38:15;;;;;;;5.20;0.85;;;;;;;20.89;49.44;99936.89;1851837;77;21478;-75
2022/07/21 07:40:41;;;;;;;3.02;0.70;;;;;;;20.90;48.93;99930.50;1823819;77;21925;-75
2022/07/21 07:43:08;;;;;;;1.50;0.70;;;;;;;20.91;48.92;99933.49;1822683;77;21033;-76
2022/07/21 07:45:36;;;;;;;1.90;0.75;;;;;;;20.96;48.81;99937.77;1841194;77;21013;-76
2022/07/21 07:48:04;;;;;;;3.65;0.88;;;;;;;21.03;49.30;99938.08;1828255;77;20989;-76
2022/07/21 07:50:35;;;;;;;3.37;0.70;;;;;;;21.14;49.48;99922.76;1851181;77;20850;-76
2022/07/21 07:53:10;;;;;;;5.08;0.62;;;;;;;21.24;49.04;99925.06;1837347;76;22626;-76
2022/07/21 07:55:39;;;;;;;2.55;0.70;;;;;;;21.36;49.24;99918.09;1855028;77;20983;-75
2022/07/21 07:58:12;;;;;;;6.42;0.80;;;;;;;21.51;48.32;99919.25;1845899;77;21368;-76
2022/07/21 08:00:39;;;;;;;1.50;0.60;;;;;;;21.58;47.21;99918.75;1853596;77;21064;-77
2022/07/21 08:03:07;;;;;;;3.83;0.75;;;;;;;21.60;46.28;99903.77;1853393;77;20974;-77
2022/07/21 08:05:35;;;;;;;1.85;0.60;;;;;;;21.60;47.45;99923.41;1850928;77;21704;-75
2022/07/21 08:08:02;;;;;;;6.30;0.68;;;;;;;21.63;46.04;99900.17;1820364;77;21006;-75
2022/07/21 08:10:29;;;;;;;2.60;0.62;;;;;;;21.67;46.19;99914.84;1817366;77;21033;-74
2022/07/21 08:13:01;;;;;;;2.83;0.70;;;;;;;21.71;46.13;99908.04;1811781;77;21036;-76
2022/07/21 08:15:30;;;;;;;1.32;0.65;;;;;;;21.79;46.08;99904.81;1804353;78;21074;-75
2022/07/21 08:17:57;;;;;;;2.12;0.60;;;;;;;21.84;45.75;99908.55;1791134;79;21852;-75
2022/07/21 08:20:24;;;;;;;4.67;0.80;;;;;;;21.84;46.31;99901.84;1774023;79;21395;-76
2022/07/21 08:22:51;;;;;;;2.25;0.60;;;;;;;21.92;45.73;99910.22;1772605;81;21034;-74
2022/07/21 08:25:18;;;;;;;3.02;0.70;;;;;;;21.97;45.92;99915.79;1799789;79;20995;-75
2022/07/21 08:27:46;;;;;;;3.60;0.65;;;;;;;22.03;45.01;99900.70;1800372;79;21035;-75
2022/07/21 08:30:14;;;;;;;4.20;0.80;;;;;;;22.09;45.29;99900.70;1772784;79;21826;-73
2022/07/21 08:32:43;;;;;;;1.40;0.50;;;;;;;22.16;44.07;99908.26;1785088;79;21528;-77
2022/07/21 08:35:10;;;;;;;2.45;0.60;;;;;;;22.15;43.84;99894.50;1770371;79;21426;-76
2022/07/21 08:37:38;;;;;;;1.35;0.50;;;;;;;22.15;44.37;99900.41;1785071;79;21043;-73
2022/07/21 08:40:09;;;;;;;2.10;0.65;;;;;;;22.22;45.07;99902.05;1779385;79;21429;-73
2022/07/21 08:42:36;;;;;;;5.35;0.70;;;;;;;22.31;44.88;99897.81;1790273;79;21753;-70
2022/07/21 08:45:04;;;;;;;2.70;0.60;;;;;;;22.33;44.89;99886.31;1801194;79;21050;-73
2022/07/21 08:47:32;;;;;;;3.08;0.50;;;;;;;22.35;44.49;99899.03;1800304;79;21003;-74
2022/07/21 08:49:59;;;;;;;2.42;0.60;;;;;;;22.41;43.81;99902.23;1777222;79;21090;-74
2022/07/21 08:52:26;;;;;;;3.47;0.57;;;;;;;22.42;44.16;99900.67;1777006;79;21449;-74
2022/07/21 08:54:53;;;;;;;1.98;0.50;;;;;;;22.44;44.54;99895.91;1778518;79;21880;-73
2022/07/21 08:57:21;;;;;;;2.05;0.60;;;;;;;22.44;44.37;99892.39;1765380;79;21042;-73
2022/07/21 08:59:48;;;;;;;3.67;0.70;;;;;;;22.45;44.63;99880.58;1788111;79;21433;-73
2022/07/21 09:02:33;;;;;;;3.42;0.70;;;;;;;22.54;44.94;99880.14;1779019;79;21480;-73
2022/07/21 09:05:00;;;;;;;1.55;0.60;;;;;;;22.61;44.02;99884.69;1796177;79;21030;-73
2022/07/21 09:07:28;;;;;;;2.47;0.65;;;;;;;22.64;43.79;99886.42;1789225;79;23100;-74
2022/07/21 09:10:02;;;;;;;5.92;0.90;;;;;;;22.62;43.82;99876.92;1778343;79;21114;-73
2022/07/21 09:12:30;;;;;;;3.90;0.70;;;;;;;22.68;43.84;99871.52;1781769;79;21019;-73
2022/07/21 09:15:18;;;;;;;4.10;0.80;;;;;;;22.72;43.72;99879.47;1786005;79;21113;-75
2022/07/21 09:17:46;;;;;;;1.75;0.60;;;;;;;22.79;44.26;99871.37;1773040;79;21078;-72
2022/07/21 09:20:26;;;;;;;1.95;0.60;;;;;;;22.95;45.04;99874.11;1772120;79;21810;-74
2022/07/21 09:23:11;;;;;;;3.08;0.72;;;;;;;23.08;43.82;99865.46;1775551;79;21026;-73
2022/07/21 09:25:45;;;;;;;1.55;0.75;;;;;;;23.13;44.53;99875.58;1792857;79;21085;-74
2022/07/21 09:28:16;;;;;;;2.95;0.65;;;;;;;23.25;43.72;99867.62;1782189;79;21043;-74
2022/07/21 09:30:59;;;;;;;4.42;3.00;;;;;;;23.26;43.76;99853.97;1789706;79;21113;-72
2022/07/21 09:33:32;;;;;;;;;;;;;;;23.32;44.03;99863.86;1804662;79;22628;-73
2022/07/21 09:36:11;;;;;;;2.35;0.80;;;;;;;23.39;43.76;99851.17;1781383;79;20193;-73
2022/07/21 09:38:45;;;;;;;2.22;0.70;;;;;;;23.43;43.09;99851.03;1780769;79;22236;-75
2022/07/21 09:41:15;;;;;;;3.12;0.80;;;;;;;23.50;43.95;99849.64;1792020;79;21063;-75
2022/07/21 09:43:49;;;;;;;1.07;0.70;;;;;;;23.64;44.08;99843.64;1783534;79;21604;-74
2022/07/21 09:46:24;;;;;;;2.02;0.70;;;;;;;23.84;44.21;99848.37;1800425;78;21965;-77
2022/07/21 09:48:53;;;;;;;3.65;0.80;;;;;;;24.03;43.40;99852.44;1788482;79;21031;-75
2022/07/21 09:51:34;;;;;;;4.62;0.70;;;;;;;24.19;42.71;99848.64;1788335;79;20964;-75
2022/07/21 09:54:06;;;;;;;3.27;0.72;;;;;;;24.24;42.22;99833.97;1771463;79;21055;-74
2022/07/21 09:56:38;;;;;;;4.83;0.70;;;;;;;24.33;42.93;99841.81;1771087;79;21097;-75
2022/07/21 09:59:07;;;;;;;2.15;0.70;;;;;;;24.46;41.84;99834.37;1778153;79;21844;-75
2022/07/21 10:01:38;;;;;;;0.98;0.60;;;;;;;24.46;41.86;99837.60;1774834;79;21573;-74
2022/07/21 10:04:06;;;;;;;3.27;0.72;;;;;;;24.52;42.15;99836.71;1785966;79;21643;-74
2022/07/21 10:06:35;;;;;;;2.83;0.70;;;;;;;24.63;41.62;99829.20;1782807;79;21047;-73
2022/07/21 10:09:06;;;;;;;5.80;0.70;;;;;;;24.68;41.47;99837.42;1792231;79;20988;-74
2022/07/21 10:11:34;;;;;;;2.85;0.70;;;;;;;24.64;41.22;99834.89;1773909;79;20962;-74
2022/07/21 10:14:03;;;;;;;5.67;0.80;;;;;;;24.68;41.86;99815.82;1773918;79;21071;-77
2022/07/21 10:16:30;;;;;;;1.27;0.70;;;;;;;24.88;42.28;99823.66;1790355;79;20959;-76
2022/07/21 10:19:06;;;;;;;1.30;0.60;;;;;;;25.08;40.92;99813.95;1787776;79;21062;-76
2022/07/21 10:21:48;;;;;;;2.37;0.60;;;;;;;25.18;40.75;99804.77;1786551;79;21026;-76
2022/07/21 10:24:14;;;;;;;2.08;0.85;;;;;;;25.23;40.58;99800.86;1785125;79;21780;-77
2022/07/21 10:27:03;;;;;;;2.12;0.62;;;;;;;25.33;41.00;99809.22;1786680;79;21016;-75
2022/07/21 10:29:53;;;;;;;1.02;0.60;;;;;;;25.46;39.63;99812.77;1770606;79;20987;-72
2022/07/21 10:32:27;;;;;;;1.87;0.62;;;;;;;25.40;39.51;99810.48;1794850;79;21004;-74
2022/07/21 10:34:55;;;;;;;1.15;0.60;;;;;;;25.30;40.33;99811.05;1782103;79;21014;-75
2022/07/21 10:37:42;;;;;;;2.25;0.70;;;;;;;25.41;40.73;99805.36;1801921;79;21783;-79
2022/07/21 10:40:24;;;;;;;2.87;0.80;;;;;;;25.61;38.76;99807.21;1783051;79;21014;-78
2022/07/21 10:43:02;;;;;;;3.55;0.70;;;;;;;25.73;39.13;99807.77;1798334;79;21007;-78
2022/07/21 10:45:42;;;;;;;0.93;0.72;;;;;;;25.82;39.70;99792.31;1775390;78;21484;-74
2022/07/21 10:48:41;;;;;;;2.27;0.98;;;;;;;25.89;39.41;99801.14;1799390;79;21391;-72
2022/07/21 10:51:15;;;;;;;2.92;0.90;;;;;;;25.99;38.76;99795.14;1781659;79;21845;-70
2022/07/21 10:53:44;;;;;;;6.22;2.47;;;;;;;26.09;38.29;99802.13;1788980;79;21062;-71
2022/07/21 10:56:28;;;;;;;5.45;1.30;;;;;;;26.11;38.35;99814.06;1789309;79;21032;-74
2022/07/21 10:58:55;;;;;;;3.15;1.22;;;;;;;26.05;37.97;99808.23;1780576;79;21011;-71
2022/07/21 11:01:27;;;;;;;1.80;1.00;;;;;;;25.96;38.06;99813.17;1789237;79;21038;-73
2022/07/21 11:04:16;;;;;;;3.40;1.10;;;;;;;25.88;38.12;99805.44;1791398;79;21777;-73
2022/07/21 11:06:42;;;;;;;1.30;1.00;;;;;;;25.68;37.76;99794.94;1773267;78;20912;-75
2022/07/21 11:09:12;;;;;;;3.40;0.90;;;;;;;25.60;39.18;99801.51;1774315;79;21027;-71
2022/07/21 11:12:03;;;;;;;2.27;0.80;;;;;;;25.78;39.60;99795.20;1765893;79;21054;-71
2022/07/21 11:14:44;;;;;;;1.75;1.00;;;;;;;26.12;40.16;99798.94;1764960;81;21516;-73
2022/07/21 11:17:25;;;;;;;4.72;1.10;;;;;;;26.52;37.72;99772.45;1765173;81;21843;-75
2022/07/21 11:19:53;;;;;;;7.28;1.30;;;;;;;26.66;38.01;99791.96;1771125;79;21035;-74
2022/07/21 11:22:25;;;;;;;2.45;1.20;;;;;;;26.77;38.03;99787.03;1796612;79;21003;-74
2022/07/21 11:25:05;;;;;;;2.60;1.10;;;;;;;26.87;38.42;99790.47;1785613;79;21027;-73
2022/07/21 11:27:34;;;;;;;2.67;1.10;;;;;;;27.06;38.68;99790.04;1790511;79;21426;-73
2022/07/21 11:30:05;;;;;;;2.25;1.00;;;;;;;27.29;37.27;99805.34;1793217;79;21936;-70
2022/07/21 11:32:32;;;;;;;3.25;1.20;;;;;;;27.35;37.05;99785.39;1752912;81;21442;-71
2022/07/21 11:35:02;;;;;;;6.00;1.32;;;;;;;27.26;36.94;99780.62;1778566;79;21417;-71
2022/07/21 11:37:43;;;;;;;3.72;1.30;;;;;;;27.04;37.00;99781.88;1768979;79;21048;-70
2022/07/21 11:40:15;;;;;;;6.92;1.50;;;;;;;27.01;37.21;99782.31;1775973;79;21057;-70